Time;durP1;ratioP1;P1;durP2;ratioP2;P2;SDS_P1;SDS_P2;PMS_P1;PMS_P2;Temp;Humidity;BMP_temperature;BMP_pressure;BME280_temperature;BME280_humidity;BME280_pressure;Samples;Min_cycle;Max_cycle;Signal;HPM_P1;HPM_P2
2022/09/19 00:01:41;;;;;;;11.90;4.20;;;;;;;10.94;77.32;99930.25;5122302;27;20149;-84
2022/09/19 00:04:17;;;;;;;14.60;5.28;;;;;;;10.91;77.36;99939.31;5067276;27;20071;-84
2022/09/19 00:06:45;;;;;;;9.88;3.47;;;;;;;10.99;77.49;99933.31;5099011;27;20031;-84
2022/09/19 00:09:14;;;;;;;35.75;11.63;;;;;;;10.97;77.54;99936.16;5079358;27;20079;-84
2022/09/19 00:11:44;;;;;;;52.83;18.08;;;;;;;10.90;77.16;99939.47;5095231;27;20045;-84
2022/09/19 00:14:13;;;;;;;30.40;9.00;;;;;;;10.97;76.74;99944.13;5072408;27;20108;-84
2022/09/19 00:16:44;;;;;;;7.68;2.80;;;;;;;10.92;76.80;99949.00;5081974;27;20062;-84
2022/09/19 00:19:15;;;;;;;5.30;2.20;;;;;;;11.00;76.47;99950.97;5113974;27;20042;-84
2022/09/19 00:21:43;;;;;;;2.15;1.33;;;;;;;10.98;76.89;99956.41;5070209;27;20047;-84
2022/09/19 00:26:58;;;;;;;3.90;1.10;;;;;;;10.95;77.15;99955.84;5090802;27;20138;-84
2022/09/19 00:29:25;;;;;;;8.15;1.30;;;;;;;10.99;77.08;99955.44;5066380;27;20058;-84
2022/09/19 00:31:52;;;;;;;1.48;1.30;;;;;;;10.97;76.92;99962.72;5067984;27;20130;-84
2022/09/19 00:34:19;;;;;;;7.88;2.00;;;;;;;11.03;76.65;99954.19;5123078;27;20057;-84
2022/09/19 00:36:46;;;;;;;4.47;2.90;;;;;;;11.01;77.10;99966.75;5090158;27;21054;-84
2022/09/19 00:39:16;;;;;;;6.40;3.13;;;;;;;10.98;76.65;99961.72;5113565;27;20035;-84
2022/09/19 00:41:44;;;;;;;7.03;3.20;;;;;;;11.01;76.87;99961.44;5111313;27;20115;-84
2022/09/19 00:44:22;;;;;;;12.23;4.43;;;;;;;10.85;77.38;99966.44;5112609;27;20043;-84
2022/09/19 00:46:53;;;;;;;10.95;4.40;;;;;;;10.98;77.07;99959.06;5088064;27;20103;-84
2022/09/19 00:49:20;;;;;;;11.07;4.97;;;;;;;10.94;77.50;99957.69;5054299;27;20083;-83
2022/09/19 00:51:50;;;;;;;10.18;5.00;;;;;;;10.98;77.25;99967.03;5103334;27;20097;-84
2022/09/19 00:54:20;;;;;;;7.25;4.82;;;;;;;10.96;77.21;99960.19;5094377;27;20070;-84
2022/09/19 00:56:54;;;;;;;7.55;4.70;;;;;;;10.87;76.90;99959.19;5093638;27;20039;-84
2022/09/19 00:59:23;;;;;;;9.55;4.88;;;;;;;10.94;77.29;99959.47;5059498;27;20075;-83
2022/09/19 01:01:53;;;;;;;7.63;4.35;;;;;;;10.85;76.74;99961.13;5090265;27;20396;-84
2022/09/19 01:04:22;;;;;;;8.13;4.07;;;;;;;10.91;77.01;99960.56;5095231;27;20524;-84
2022/09/19 01:06:59;;;;;;;10.23;4.38;;;;;;;10.94;77.43;99960.34;5086147;27;20146;-85
2022/09/19 01:09:43;;;;;;;10.70;4.30;;;;;;;10.94;76.77;99963.00;5102524;27;20158;-84
2022/09/19 01:12:37;;;;;;;8.60;4.07;;;;;;;10.87;77.33;99956.53;5090053;27;20058;-84
2022/09/19 01:15:28;;;;;;;8.50;3.45;;;;;;;10.73;78.36;99975.47;5105925;27;20104;-84
2022/09/19 01:17:58;;;;;;;7.95;4.15;;;;;;;10.86;78.07;99970.75;5076518;27;20470;-85
2022/09/19 01:24:30;;;;;;;9.15;4.45;;;;;;;10.67;77.96;99965.41;5112103;27;20491;-84
2022/09/19 01:27:09;;;;;;;5.97;3.45;;;;;;;10.74;78.42;99970.03;5107118;27;20407;-84
2022/09/19 01:29:37;;;;;;;7.13;3.40;;;;;;;10.86;78.08;99974.28;5069329;27;20046;-83
2022/09/19 01:32:08;;;;;;;5.28;3.40;;;;;;;10.89;78.51;99967.88;5074028;27;20169;-90
2022/09/19 01:34:42;;;;;;;5.50;2.53;;;;;;;10.93;78.29;99965.75;5099617;27;20035;-88
2022/09/19 01:37:17;;;;;;;4.55;2.40;;;;;;;10.93;78.04;99973.75;5098729;27;20070;-89
2022/09/19 01:39:49;;;;;;;4.80;2.13;;;;;;;11.05;77.68;99972.66;5094390;27;20122;-89
2022/09/19 01:42:18;;;;;;;4.22;2.08;;;;;;;11.04;77.22;99977.16;5079918;27;20039;-89
2022/09/19 01:44:45;;;;;;;3.70;1.85;;;;;;;11.07;77.65;99979.53;5094679;27;20050;-91
2022/09/19 01:47:36;;;;;;;2.78;1.95;;;;;;;10.91;78.08;99975.69;5064915;27;20517;-90
2022/09/19 01:50:23;;;;;;;2.80;1.45;;;;;;;11.01;77.30;99981.88;5106953;27;20544;-89
2022/09/19 01:53:11;;;;;;;4.30;1.92;;;;;;;10.93;77.46;99987.03;5103052;27;20363;-90
2022/09/19 01:56:09;;;;;;;3.35;1.80;;;;;;;10.99;77.58;99997.09;5098345;27;20035;-89
2022/09/19 01:58:46;;;;;;;4.95;1.83;;;;;;;10.99;77.72;99992.66;5108713;27;20399;-90
2022/09/19 02:01:36;;;;;;;1.80;1.33;;;;;;;10.91;78.01;100000.44;5076957;27;20091;-90
2022/09/19 02:04:10;;;;;;;6.00;1.73;;;;;;;11.00;77.69;99998.81;5102119;27;20474;-90
2022/09/19 02:06:46;;;;;;;2.33;1.30;;;;;;;11.05;77.85;99993.94;5108236;27;20628;-89
2022/09/19 02:09:17;;;;;;;2.80;1.48;;;;;;;11.07;77.62;99995.47;5074340;27;20050;-89
2022/09/19 02:11:46;;;;;;;5.75;1.50;;;;;;;11.12;77.82;100002.19;5104663;28;20491;-90
2022/09/19 02:14:17;;;;;;;4.55;1.30;;;;;;;11.07;77.75;99992.81;5089437;27;20055;-90
2022/09/19 02:17:06;;;;;;;4.72;1.45;;;;;;;10.93;77.94;99995.00;5089007;27;20039;-90
2022/09/19 02:19:38;;;;;;;6.90;1.20;;;;;;;11.05;77.74;99996.59;5092603;27;20043;-89
2022/09/19 02:22:08;;;;;;;6.55;1.45;;;;;;;11.07;77.73;100000.78;5061226;27;20053;-90
2022/09/19 02:24:38;;;;;;;4.55;1.70;;;;;;;11.12;77.18;99997.72;5091709;27;20058;-90
2022/09/19 02:27:15;;;;;;;5.07;1.85;;;;;;;11.04;77.29;99997.53;5082715;27;20138;-90
2022/09/19 02:29:48;;;;;;;5.90;1.58;;;;;;;11.10;77.80;99998.84;5096453;27;20119;-90
2022/09/19 02:32:19;;;;;;;3.13;1.23;;;;;;;11.08;77.72;99999.78;5067496;27;20737;-90
2022/09/19 02:34:49;;;;;;;6.25;1.58;;;;;;;11.10;77.75;100004.16;5096637;27;20051;-90
2022/09/19 02:37:39;;;;;;;5.30;1.23;;;;;;;11.05;77.56;100002.72;5091788;27;20521;-88
2022/09/19 02:40:22;;;;;;;3.83;1.23;;;;;;;10.97;77.13;100007.88;5111636;27;20075;-90
2022/09/19 02:43:05;;;;;;;4.53;0.90;;;;;;;10.97;77.03;100010.53;5125006;27;20053;-90
2022/09/19 02:45:38;;;;;;;5.22;0.98;;;;;;;11.06;77.65;100011.53;5080053;27;20769;-90
2022/09/19 02:48:16;;;;;;;3.03;1.10;;;;;;;11.10;77.56;100012.13;5061347;27;20035;-89
2022/09/19 02:50:52;;;;;;;2.78;1.00;;;;;;;11.04;77.67;100011.69;5080538;27;20079;-90
2022/09/19 02:53:22;;;;;;;1.95;0.95;;;;;;;11.11;77.16;100017.28;5065217;27;20487;-91
2022/09/19 02:55:52;;;;;;;5.45;1.08;;;;;;;11.07;77.34;100008.75;5079090;27;20495;-89
2022/09/19 02:58:21;;;;;;;1.98;1.42;;;;;;;11.05;77.05;100010.69;5069942;27;20043;-90
2022/09/19 03:00:53;;;;;;;1.92;1.10;;;;;;;11.09;76.78;100013.91;5092186;27;20040;-90
2022/09/19 03:06:35;;;;;;;3.33;1.00;;;;;;;11.10;76.70;99997.00;5107377;27;20514;-88
2022/09/19 03:09:04;;;;;;;2.78;1.35;;;;;;;11.14;76.27;100002.88;5122608;27;20099;-89
2022/09/19 03:11:33;;;;;;;2.75;1.63;;;;;;;11.10;76.67;100004.16;5055690;27;20048;-88
2022/09/19 03:14:01;;;;;;;3.80;2.63;;;;;;;11.12;76.62;100012.81;5061254;27;20043;-88
2022/09/19 03:16:35;;;;;;;9.00;2.83;;;;;;;11.06;76.86;100017.69;5071304;27;20048;-89
2022/09/19 03:19:07;;;;;;;7.85;2.65;;;;;;;11.02;77.17;100020.78;5076226;27;20448;-89
2022/09/19 03:21:37;;;;;;;10.43;2.72;;;;;;;11.02;77.81;100021.59;5084245;27;20044;-88
2022/09/19 03:24:05;;;;;;;5.15;2.03;;;;;;;11.11;76.67;100029.75;5075957;27;20055;-87
2022/09/19 03:26:34;;;;;;;4.78;1.27;;;;;;;11.07;76.34;100029.19;5081721;27;20043;-89
2022/09/19 03:29:04;;;;;;;3.40;1.23;;;;;;;11.11;76.43;100025.25;5079766;27;20093;-89
2022/09/19 03:31:37;;;;;;;6.05;1.35;;;;;;;11.07;77.04;100035.34;5095573;27;20126;-89
2022/09/19 03:34:08;;;;;;;6.80;1.38;;;;;;;11.03;77.13;100035.72;5072840;27;20047;-90
2022/09/19 03:36:35;;;;;;;6.72;1.15;;;;;;;11.09;76.71;100037.84;5072289;27;20399;-91
2022/09/19 03:39:05;;;;;;;7.70;1.13;;;;;;;11.06;77.16;100038.09;5067195;27;20044;-90
2022/09/19 03:41:38;;;;;;;5.15;1.25;;;;;;;11.10;77.11;100036.03;5072675;27;20530;-90
2022/09/19 03:44:07;;;;;;;9.13;1.25;;;;;;;11.08;77.20;100036.16;5055594;27;20039;-90
2022/09/19 03:46:35;;;;;;;8.10;1.15;;;;;;;11.11;77.37;100051.00;5103460;27;20112;-91
2022/09/19 03:49:03;;;;;;;6.28;1.15;;;;;;;11.13;76.88;100052.56;5100244;27;20035;-89
2022/09/19 03:51:31;;;;;;;11.27;1.23;;;;;;;11.12;76.66;100050.88;5105859;27;20050;-90
2022/09/19 03:54:01;;;;;;;7.43;1.20;;;;;;;11.06;77.29;100054.06;5105719;27;20103;-88
2022/09/19 03:56:34;;;;;;;14.02;1.63;;;;;;;11.11;76.52;100062.47;5082552;27;20044;-89
2022/09/19 03:59:03;;;;;;;10.23;1.38;;;;;;;11.16;76.60;100059.41;5070048;27;20133;-89
2022/09/19 04:01:30;;;;;;;7.40;1.33;;;;;;;11.14;76.60;100064.84;5091117;27;20050;-90
2022/09/19 04:03:57;;;;;;;12.30;1.40;;;;;;;11.12;76.83;100065.97;5074044;27;20042;-91
2022/09/19 04:06:23;;;;;;;8.82;1.33;;;;;;;11.12;76.57;100068.63;5086226;27;20161;-90
2022/09/19 04:08:50;;;;;;;4.10;1.50;;;;;;;11.10;77.38;100067.94;5095640;27;20050;-84
2022/09/19 04:11:28;;;;;;;3.80;1.33;;;;;;;11.08;77.66;100065.41;5058563;27;20055;-88
2022/09/19 04:13:55;;;;;;;8.05;1.20;;;;;;;11.11;77.90;100069.59;5084837;27;20050;-85
2022/09/19 04:16:25;;;;;;;8.75;1.63;;;;;;;11.12;77.40;100073.94;5075393;27;20042;-85
2022/09/19 04:18:52;;;;;;;8.55;1.70;;;;;;;11.11;77.25;100075.75;5086976;27;20094;-86
2022/09/19 04:21:47;;;;;;;5.65;1.10;;;;;;;11.09;77.18;100072.38;5079985;27;20047;-85
2022/09/19 04:24:29;;;;;;;4.40;1.02;;;;;;;11.12;77.32;100073.94;5105538;27;20047;-85
2022/09/19 04:27:14;;;;;;;9.77;1.48;;;;;;;11.13;77.21;100087.09;5094206;27;20055;-86
2022/09/19 04:29:48;;;;;;;5.95;1.08;;;;;;;11.12;77.36;100084.56;5086825;27;20536;-88
2022/09/19 04:32:15;;;;;;;9.90;1.30;;;;;;;11.13;77.21;100094.25;5112882;27;20553;-82
2022/09/19 04:34:43;;;;;;;6.75;1.20;;;;;;;11.10;77.21;100091.84;5110631;27;20035;-82
2022/09/19 04:37:15;;;;;;;6.25;1.27;;;;;;;11.15;76.31;100098.44;5115755;27;20081;-82
2022/09/19 04:39:48;;;;;;;4.25;1.30;;;;;;;11.13;75.47;100094.25;5117239;27;20420;-82
2022/09/19 04:42:18;;;;;;;9.43;1.33;;;;;;;10.99;76.45;100098.06;5100479;27;20060;-82
2022/09/19 04:44:45;;;;;;;7.07;1.48;;;;;;;11.02;77.26;100101.31;5108460;27;20039;-82
2022/09/19 04:47:19;;;;;;;7.57;1.50;;;;;;;11.05;77.44;100101.06;5103639;27;20043;-82
2022/09/19 04:49:46;;;;;;;9.48;1.50;;;;;;;11.07;77.40;100106.25;5087092;27;20050;-83
2022/09/19 04:52:13;;;;;;;5.10;1.10;;;;;;;11.08;76.61;100105.25;5084901;27;20093;-82
2022/09/19 04:54:45;;;;;;;8.98;1.60;;;;;;;11.05;77.34;100109.03;5074982;27;20047;-82
2022/09/19 04:57:11;;;;;;;13.30;2.17;;;;;;;11.03;77.37;100107.47;5092815;27;20059;-82
2022/09/19 04:59:40;;;;;;;9.07;2.10;;;;;;;11.12;77.36;100108.47;5117028;27;20113;-82
2022/09/19 05:02:08;;;;;;;7.03;2.15;;;;;;;11.10;77.24;100102.47;5096455;27;20047;-82
2022/09/19 05:04:35;;;;;;;5.30;1.88;;;;;;;11.10;77.33;100111.28;5114509;27;20482;-82
2022/09/19 05:07:02;;;;;;;10.05;2.10;;;;;;;11.09;77.61;100114.91;5082056;27;20051;-82
2022/09/19 05:09:31;;;;;;;6.10;1.70;;;;;;;11.06;77.15;100116.00;5087390;27;20146;-82
2022/09/19 05:12:08;;;;;;;8.50;2.08;;;;;;;11.07;77.12;100117.72;5115315;27;20042;-82
2022/09/19 05:14:38;;;;;;;8.90;1.30;;;;;;;11.05;77.44;100113.50;5111925;27;20047;-82
2022/09/19 05:17:06;;;;;;;6.95;1.50;;;;;;;11.08;77.24;100123.88;5078206;27;20049;-81
2022/09/19 05:19:36;;;;;;;11.15;1.58;;;;;;;11.05;77.66;100124.13;5118003;27;20125;-81
2022/09/19 05:22:04;;;;;;;11.57;1.55;;;;;;;11.09;76.97;100128.19;5094984;27;20400;-82
2022/09/19 05:24:31;;;;;;;11.48;1.90;;;;;;;11.08;77.08;100124.69;5107381;27;20051;-82
2022/09/19 05:26:59;;;;;;;10.95;2.45;;;;;;;11.06;77.01;100133.78;5118106;27;20047;-82
2022/09/19 05:29:26;;;;;;;4.38;1.52;;;;;;;11.06;76.93;100128.47;5113508;27;20545;-82
2022/09/19 05:32:03;;;;;;;7.00;1.13;;;;;;;11.03;76.53;100134.88;5096539;27;20121;-82
2022/09/19 05:34:56;;;;;;;8.45;1.73;;;;;;;11.03;76.83;100140.19;5071876;27;20096;-84
2022/09/19 05:37:45;;;;;;;4.00;1.30;;;;;;;11.04;76.95;100138.38;5094985;27;20512;-84
2022/09/19 05:40:43;;;;;;;12.70;1.63;;;;;;;11.05;76.95;100148.88;5097217;27;20023;-84
2022/09/19 05:43:17;;;;;;;13.27;1.95;;;;;;;11.04;76.89;100146.34;5100157;27;20083;-84
2022/09/19 05:45:46;;;;;;;8.32;1.73;;;;;;;11.03;77.34;100152.66;5127762;27;20042;-84
2022/09/19 05:48:14;;;;;;;12.98;1.65;;;;;;;11.03;77.61;100150.81;5101057;27;20043;-84
2022/09/19 05:50:42;;;;;;;10.63;2.20;;;;;;;11.02;77.62;100153.63;5108252;27;20043;-84
2022/09/19 05:56:04;;;;;;;9.00;2.10;;;;;;;11.04;77.60;100167.59;5103411;27;20084;-84
2022/09/19 05:58:37;;;;;;;8.93;2.20;;;;;;;11.07;77.75;100172.69;5090646;27;20050;-85
2022/09/19 06:01:08;;;;;;;7.40;1.65;;;;;;;11.11;77.37;100165.28;5077519;27;20085;-85
2022/09/19 06:03:35;;;;;;;9.23;2.03;;;;;;;11.09;77.57;100170.72;5107111;27;20514;-84
2022/09/19 06:06:11;;;;;;;16.00;2.33;;;;;;;11.09;77.48;100168.06;5081758;27;20096;-84
2022/09/19 06:08:39;;;;;;;9.02;1.40;;;;;;;11.15;77.50;100177.34;5107638;27;20117;-85
2022/09/19 06:11:06;;;;;;;7.13;1.55;;;;;;;11.17;77.80;100176.25;5087256;27;20047;-85
2022/09/19 06:16:20;;;;;;;11.93;2.80;;;;;;;11.19;77.52;100179.59;5124561;27;20489;-84
2022/09/19 06:19:05;;;;;;;13.73;2.95;;;;;;;11.21;77.53;100182.97;5122129;27;20042;-85
2022/09/19 06:21:32;;;;;;;6.05;1.90;;;;;;;11.25;78.08;100179.09;5104280;27;20057;-79
2022/09/19 06:24:01;;;;;;;18.50;2.63;;;;;;;11.27;78.14;100177.13;5078027;27;20137;-80
2022/09/19 06:26:28;;;;;;;8.40;1.83;;;;;;;11.30;77.71;100178.69;5097373;27;20046;-80
2022/09/19 06:28:55;;;;;;;9.05;2.25;;;;;;;11.37;77.40;100186.97;5104167;27;20056;-79
2022/09/19 06:31:22;;;;;;;12.38;1.90;;;;;;;11.38;77.24;100181.53;5092869;27;20088;-80
2022/09/19 06:33:55;;;;;;;17.38;3.05;;;;;;;11.39;77.11;100187.69;5084929;27;20044;-80
2022/09/19 06:36:28;;;;;;;9.70;1.90;;;;;;;11.41;77.52;100185.72;5087505;27;20051;-80
2022/09/19 06:38:55;;;;;;;11.75;1.63;;;;;;;11.42;77.26;100190.94;5092766;27;20448;-80
2022/09/19 06:41:36;;;;;;;11.95;2.45;;;;;;;11.41;77.42;100191.06;5099851;27;20375;-80
2022/09/19 06:44:22;;;;;;;14.63;2.45;;;;;;;11.41;77.39;100193.72;5085053;27;20432;-80
2022/09/19 06:47:17;;;;;;;9.13;1.95;;;;;;;11.40;77.64;100200.84;5019100;27;20064;-80
2022/09/19 06:50:16;;;;;;;15.57;2.17;;;;;;;11.47;77.54;100195.81;5104023;27;20054;-79
2022/09/19 06:52:59;;;;;;;12.45;2.35;;;;;;;11.47;77.78;100203.81;5088571;27;20892;-79
2022/09/19 06:55:27;;;;;;;11.48;2.45;;;;;;;11.48;77.49;100201.03;5108242;27;20035;-79
2022/09/19 06:58:00;;;;;;;8.85;2.63;;;;;;;11.55;77.49;100203.13;5088414;27;20388;-79
2022/09/19 07:00:28;;;;;;;13.30;2.53;;;;;;;11.56;77.93;100211.00;5070262;27;20485;-79
2022/09/19 07:03:00;;;;;;;11.38;2.40;;;;;;;11.58;77.33;100218.84;5122271;27;20406;-79
2022/09/19 07:05:28;;;;;;;11.75;2.67;;;;;;;11.62;77.23;100217.59;5117588;27;20043;-79
2022/09/19 07:08:13;;;;;;;8.60;2.38;;;;;;;11.66;77.03;100225.19;5079460;27;20507;-79
2022/09/19 07:10:42;;;;;;;13.65;3.08;;;;;;;11.66;77.47;100227.84;5106700;27;20117;-79
2022/09/19 07:13:13;;;;;;;14.68;2.85;;;;;;;11.66;76.70;100233.16;5104282;27;20103;-79
2022/09/19 07:15:40;;;;;;;10.13;2.30;;;;;;;11.69;76.52;100232.06;5081193;27;20909;-80
2022/09/19 07:18:08;;;;;;;10.38;2.30;;;;;;;11.70;76.47;100228.41;5091034;27;20046;-80
2022/09/19 07:20:37;;;;;;;12.23;2.38;;;;;;;11.68;77.17;100225.06;5101295;27;20092;-80
2022/09/19 07:23:18;;;;;;;14.30;2.72;;;;;;;11.70;77.16;100228.41;5103543;27;20390;-79
2022/09/19 07:25:58;;;;;;;10.65;2.63;;;;;;;11.71;77.38;100230.94;5124872;27;20038;-79
2022/09/19 07:28:26;;;;;;;12.60;2.65;;;;;;;11.73;77.19;100233.50;5102992;27;20062;-80
2022/09/19 07:30:56;;;;;;;8.68;2.30;;;;;;;11.76;76.93;100237.69;5083189;27;20054;-79
2022/09/19 07:33:28;;;;;;;20.00;3.67;;;;;;;11.78;77.14;100236.59;5108868;27;20490;-80
2022/09/19 07:35:55;;;;;;;8.60;3.00;;;;;;;11.82;76.90;100242.47;5118234;27;20043;-80
2022/09/19 07:38:23;;;;;;;17.95;3.80;;;;;;;11.80;77.46;100247.91;5101702;27;20092;-79
2022/09/19 07:41:11;;;;;;;12.75;3.38;;;;;;;11.77;77.45;100250.84;5084843;27;20044;-79
2022/09/19 07:43:53;;;;;;;17.90;4.63;;;;;;;11.79;77.17;100246.25;5101493;27;20043;-80
2022/09/19 07:47:26;;;;;;;13.32;4.00;;;;;;;11.80;76.74;100255.06;5125834;27;20536;-79
2022/09/19 07:49:43;;;;;;;15.95;3.97;;;;;;;11.79;76.78;100259.53;5099711;27;20551;-79
2022/09/19 07:52:28;;;;;;;11.93;3.95;;;;;;;11.77;76.56;100258.00;5106744;27;20057;-79
2022/09/19 07:54:55;;;;;;;14.80;4.35;;;;;;;11.78;76.61;100257.00;5104697;27;20089;-79
2022/09/19 07:57:22;;;;;;;19.90;4.15;;;;;;;11.79;76.44;100270.19;5082674;27;20506;-79
2022/09/19 07:59:50;;;;;;;19.67;4.60;;;;;;;11.83;76.55;100262.78;5087301;27;20480;-79
2022/09/19 08:02:17;;;;;;;13.88;4.15;;;;;;;11.88;76.84;100265.91;5063752;27;20051;-79
2022/09/19 08:04:44;;;;;;;8.63;3.90;;;;;;;11.90;76.75;100270.13;5085346;27;20087;-79
2022/09/19 08:07:10;;;;;;;15.27;5.00;;;;;;;11.94;76.50;100266.22;5097936;27;20521;-79
2022/09/19 08:09:39;;;;;;;12.77;4.28;;;;;;;11.98;76.59;100269.44;5134958;27;20834;-79
2022/09/19 08:12:12;;;;;;;18.48;4.70;;;;;;;11.99;76.51;100281.81;5106507;27;20063;-79
2022/09/19 08:15:04;;;;;;;10.30;3.72;;;;;;;11.99;76.51;100288.94;5117200;27;20587;-80
2022/09/19 08:17:31;;;;;;;12.63;4.15;;;;;;;11.93;75.93;100287.63;5109653;27;20047;-79
2022/09/19 08:19:58;;;;;;;14.35;4.20;;;;;;;11.90;75.71;100280.75;5102375;27;20135;-80
2022/09/19 08:22:25;;;;;;;14.63;5.38;;;;;;;11.91;76.02;100287.78;5077776;27;20054;-80
2022/09/19 08:24:59;;;;;;;12.77;4.30;;;;;;;11.97;76.37;100291.72;5094489;27;20050;-79
2022/09/19 08:27:27;;;;;;;17.48;4.35;;;;;;;12.02;76.26;100297.50;5107309;27;20395;-79
2022/09/19 08:29:54;;;;;;;16.63;4.50;;;;;;;12.07;76.26;100300.59;5110001;27;20046;-79
2022/09/19 08:32:21;;;;;;;20.50;4.47;;;;;;;12.11;76.17;100301.16;5099037;27;20053;-84
2022/09/19 08:34:48;;;;;;;17.08;4.90;;;;;;;12.13;76.06;100301.88;5123566;27;20059;-84
2022/09/19 08:37:16;;;;;;;18.38;5.05;;;;;;;12.15;75.98;100299.94;5089097;27;20383;-83
2022/09/19 08:40:15;;;;;;;10.23;4.72;;;;;;;12.19;76.02;100306.69;5096885;27;20082;-83
2022/09/19 08:43:06;;;;;;;;;;;;;;;12.00;75.66;100310.09;5118059;27;20088;-84
2022/09/19 08:45:40;;;;;;;16.15;4.90;;;;;;;12.10;75.56;100310.97;5103015;27;20011;-84
2022/09/19 08:48:13;;;;;;;14.07;4.10;;;;;;;12.14;75.27;100311.56;5108027;27;20458;-84
2022/09/19 08:50:47;;;;;;;20.20;4.75;;;;;;;12.16;75.57;100325.56;5105283;27;20031;-84
2022/09/19 08:53:22;;;;;;;16.92;5.93;;;;;;;12.20;75.71;100318.16;5094346;27;20035;-84
2022/09/19 08:55:53;;;;;;;13.48;4.57;;;;;;;12.25;75.87;100327.44;5078675;27;20159;-83
2022/09/19 08:58:23;;;;;;;15.10;5.10;;;;;;;12.27;75.84;100316.66;5109620;27;20074;-84
2022/09/19 09:01:10;;;;;;;16.95;4.70;;;;;;;12.28;76.10;100321.00;5101620;27;20043;-83
2022/09/19 09:04:22;;;;;;;10.38;3.80;;;;;;;12.27;76.01;100328.16;5110523;27;20050;-84
2022/09/19 09:07:16;;;;;;;13.65;4.30;;;;;;;12.30;76.15;100319.88;5120701;27;20428;-84
2022/09/19 09:09:58;;;;;;;22.63;4.80;;;;;;;12.30;76.13;100327.88;5119907;27;20110;-83
2022/09/19 09:12:47;;;;;;;12.00;4.32;;;;;;;12.25;76.03;100324.78;5103187;27;20039;-84
2022/09/19 09:15:45;;;;;;;10.25;4.05;;;;;;;12.30;76.11;100333.19;5119409;27;20050;-84
2022/09/19 09:18:35;;;;;;;16.80;5.10;;;;;;;12.31;76.17;100334.91;5110382;27;20063;-84
2022/09/19 09:21:17;;;;;;;17.08;5.07;;;;;;;12.37;76.27;100331.69;5100878;27;20060;-84
2022/09/19 09:23:51;;;;;;;16.27;5.03;;;;;;;12.46;76.43;100338.00;5102690;27;20051;-84
2022/09/19 09:26:36;;;;;;;18.00;4.68;;;;;;;12.43;76.21;100337.44;5126472;27;20551;-84
2022/09/19 09:29:28;;;;;;;12.60;4.40;;;;;;;12.34;75.82;100339.13;5074643;27;20471;-84
2022/09/19 09:32:16;;;;;;;14.88;5.00;;;;;;;12.32;75.09;100336.56;5106722;27;20473;-83
2022/09/19 09:35:30;;;;;;;14.68;4.75;;;;;;;12.25;75.75;100335.41;5096652;27;20035;-83
2022/09/19 09:38:08;;;;;;;10.57;3.63;;;;;;;12.37;75.91;100338.84;5077794;27;20457;-83
2022/09/19 09:44:04;;;;;;;14.23;4.40;;;;;;;12.44;75.77;100339.13;5110737;27;20035;-84
2022/09/19 09:46:53;;;;;;;16.13;5.70;;;;;;;12.45;76.05;100335.50;5084717;27;20055;-84
2022/09/19 09:49:28;;;;;;;9.07;3.90;;;;;;;12.52;76.09;100340.16;5106179;27;20062;-83
2022/09/19 09:52:15;;;;;;;10.05;4.35;;;;;;;12.41;76.23;100332.25;5086855;27;20550;-84
2022/09/19 09:58:13;;;;;;;12.45;4.30;;;;;;;12.46;75.71;100334.50;5122826;27;20039;-84
2022/09/19 10:03:44;;;;;;;14.82;5.38;;;;;;;12.55;75.75;100337.19;5105273;27;20035;-84
2022/09/19 10:06:25;;;;;;;10.13;4.60;;;;;;;12.60;75.64;100334.97;5114823;27;20051;-84
2022/09/19 10:09:22;;;;;;;21.60;5.90;;;;;;;12.56;75.60;100336.22;5126035;27;20538;-84
2022/09/19 10:11:56;;;;;;;18.10;5.78;;;;;;;12.66;75.32;100328.25;5131457;27;20039;-84
2022/09/19 10:14:43;;;;;;;21.70;5.57;;;;;;;12.66;75.88;100332.75;5102321;28;20051;-84
2022/09/19 10:17:33;;;;;;;21.50;5.95;;;;;;;12.67;75.60;100327.28;5106285;27;20051;-83
2022/09/19 10:20:11;;;;;;;16.35;6.47;;;;;;;12.65;76.02;100326.56;5081026;27;20044;-84
2022/09/19 10:22:37;;;;;;;27.73;7.85;;;;;;;12.80;75.39;100327.88;5085906;27;20502;-84
2022/09/19 10:25:13;;;;;;;22.48;6.00;;;;;;;12.73;75.24;100320.56;5073574;27;20039;-84
2022/09/19 10:27:43;;;;;;;20.23;6.22;;;;;;;12.81;75.68;100318.03;5088941;27;20044;-83
2022/09/19 10:30:33;;;;;;;15.60;5.63;;;;;;;12.85;75.51;100315.94;5077965;28;20050;-84
2022/09/19 10:33:23;;;;;;;21.38;6.68;;;;;;;12.82;75.71;100325.03;5111091;27;20104;-84
2022/09/19 10:35:58;;;;;;;12.82;5.57;;;;;;;12.95;75.90;100324.78;5083538;27;20049;-83
2022/09/19 10:38:26;;;;;;;21.35;5.82;;;;;;;13.01;75.74;100322.41;5095324;27;20046;-83
2022/09/19 10:40:52;;;;;;;14.43;6.35;;;;;;;13.01;75.12;100319.75;5116482;27;20441;-83
2022/09/19 10:43:22;;;;;;;12.02;6.32;;;;;;;13.10;75.46;100326.06;5105533;27;20108;-84
2022/09/19 10:45:49;;;;;;;12.13;5.60;;;;;;;13.13;75.69;100327.63;5095467;27;20035;-84
2022/09/19 10:48:26;;;;;;;23.52;7.35;;;;;;;13.10;75.03;100326.06;5108825;27;20051;-84
2022/09/19 10:50:53;;;;;;;15.77;6.00;;;;;;;13.13;74.83;100328.47;5106283;27;20475;-84
2022/09/19 10:53:26;;;;;;;15.65;5.50;;;;;;;13.08;74.48;100329.84;5097294;27;20057;-83
2022/09/19 10:55:56;;;;;;;19.52;6.50;;;;;;;13.03;74.76;100323.13;5107606;27;20048;-83
2022/09/19 10:58:27;;;;;;;17.77;6.75;;;;;;;13.10;74.55;100322.53;5109341;27;20134;-84
2022/09/19 11:01:26;;;;;;;28.55;7.05;;;;;;;13.13;74.73;100323.13;5107134;27;20404;-83
2022/09/19 11:04:00;;;;;;;15.05;5.63;;;;;;;13.17;74.65;100323.66;5078217;27;20077;-84
2022/09/19 11:06:29;;;;;;;14.32;6.13;;;;;;;13.19;74.66;100322.56;5092182;27;20487;-83
2022/09/19 11:08:56;;;;;;;16.83;5.90;;;;;;;13.25;74.25;100321.13;5105095;27;20043;-84
2022/09/19 11:11:38;;;;;;;13.32;5.68;;;;;;;13.29;74.70;100327.91;5111485;27;20042;-84
2022/09/19 11:14:31;;;;;;;22.83;5.45;;;;;;;13.21;74.17;100328.59;5099136;27;20036;-84
2022/09/19 11:17:30;;;;;;;23.25;5.95;;;;;;;13.18;74.46;100320.88;5109014;27;20058;-84
2022/09/19 11:20:23;;;;;;;17.10;5.75;;;;;;;13.26;75.25;100325.50;5113284;27;20474;-83
2022/09/19 11:23:28;;;;;;;13.25;5.72;;;;;;;13.32;74.35;100324.97;5124013;27;20088;-83
2022/09/19 11:26:21;;;;;;;18.65;5.57;;;;;;;13.37;74.40;100330.72;5109091;27;20043;-84
2022/09/19 11:28:59;;;;;;;;;;;;;;;13.27;74.88;100327.22;5089998;27;20058;-84
2022/09/19 11:32:03;;;;;;;14.85;4.72;;;;;;;13.34;74.48;100332.84;5098130;27;19987;-84
2022/09/19 11:34:51;;;;;;;13.18;4.88;;;;;;;13.43;74.87;100329.31;5138283;27;20129;-83
2022/09/19 11:37:41;;;;;;;13.07;4.75;;;;;;;13.38;74.38;100335.09;5120388;27;20047;-84
2022/09/19 11:40:27;;;;;;;19.95;4.70;;;;;;;13.41;75.24;100332.13;5113941;27;20093;-84
2022/09/19 11:43:09;;;;;;;12.18;4.88;;;;;;;13.57;74.94;100325.38;5129057;27;20039;-83
2022/09/19 11:45:52;;;;;;;;;;;;;;;13.54;76.01;100317.66;5092801;27;20048;-84
2022/09/19 11:48:54;;;;;;;25.15;4.45;;;;;;;13.69;75.21;100313.56;5117319;27;19920;-83
2022/09/19 11:51:49;;;;;;;8.98;3.17;;;;;;;13.70;74.70;100317.06;5093473;27;20044;-83
2022/09/19 11:54:34;;;;;;;9.02;3.85;;;;;;;13.77;75.04;100316.34;5085172;27;20057;-84
2022/09/19 11:57:04;;;;;;;13.65;3.20;;;;;;;13.81;75.25;100309.69;5126799;27;20035;-83
2022/09/19 11:59:41;;;;;;;10.43;3.33;;;;;;;13.82;75.12;100305.22;5122245;27;20099;-84
2022/09/19 12:02:28;;;;;;;7.18;2.60;;;;;;;13.80;74.99;100304.53;5107392;27;20059;-83
2022/09/19 12:05:04;;;;;;;13.27;3.60;;;;;;;13.89;74.71;100304.50;5120986;27;20123;-83
2022/09/19 12:07:42;;;;;;;11.20;2.67;;;;;;;13.91;74.54;100307.00;5099168;27;20158;-84
2022/09/19 12:10:25;;;;;;;11.52;4.68;;;;;;;13.94;74.77;100300.53;5119609;27;20447;-84
2022/09/19 12:13:05;;;;;;;8.30;2.72;;;;;;;13.94;74.94;100300.53;5115761;27;20114;-84
2022/09/19 12:15:46;;;;;;;11.90;3.20;;;;;;;13.97;74.86;100295.75;5109986;27;20061;-84
2022/09/19 12:18:26;;;;;;;14.65;3.67;;;;;;;13.90;74.32;100295.50;5093714;27;20040;-83
2022/09/19 12:20:58;;;;;;;21.73;3.85;;;;;;;13.95;74.89;100303.06;5122042;27;20486;-83
2022/09/19 12:26:49;;;;;;;12.35;2.88;;;;;;;13.95;74.52;100296.91;5081628;27;20046;-84
2022/09/19 12:29:19;;;;;;;;;;;;;;;13.81;74.89;100292.84;5082284;27;20050;-83
2022/09/19 12:31:53;;;;;;;21.77;3.63;;;;;;;13.96;74.56;100288.72;5098817;27;19919;-83